sensor_id;sensor_type;location;lat;lon;timestamp;pressure;altitude;pressure_sealevel;temperature;humidity
31483;BME280;18103;52.246;8.052;2023-11-19T00:02:19;99598.78;;;9.35;100.00
31483;BME280;18103;52.246;8.052;2023-11-19T00:04:47;99602.16;;;9.47;100.00
31483;BME280;18103;52.246;8.052;2023-11-19T00:07:15;99587.03;;;9.39;100.00
31483;BME280;18103;52.246;8.052;2023-11-19T00:09:40;99579.16;;;9.49;100.00
31483;BME280;18103;52.246;8.052;2023-11-19T00:12:09;99572.91;;;9.50;100.00
31483;BME280;18103;52.246;8.052;2023-11-19T00:14:34;99574.59;;;9.51;100.00
31483;BME280;18103;52.246;8.052;2023-11-19T00:17:00;99574.44;;;9.52;100.00
31483;BME280;18103;52.246;8.052;2023-11-19T00:19:25;99575.41;;;9.51;100.00
31483;BME280;18103;52.246;8.052;2023-11-19T00:21:51;99568.09;;;9.55;100.00
31483;BME280;18103;52.246;8.052;2023-11-19T00:24:19;99568.66;;;9.58;100.00
31483;BME280;18103;52.246;8.052;2023-11-19T00:26:45;99560.34;;;9.63;100.00
31483;BME280;18103;52.246;8.052;2023-11-19T00:29:14;99560.66;;;9.70;100.00
31483;BME280;18103;52.246;8.052;2023-11-19T00:31:43;99548.13;;;9.62;100.00
31483;BME280;18103;52.246;8.052;2023-11-19T00:34:09;99534.97;;;9.62;100.00
31483;BME280;18103;52.246;8.052;2023-11-19T00:36:35;99549.97;;;9.71;100.00
31483;BME280;18103;52.246;8.052;2023-11-19T00:39:02;99538.03;;;9.67;100.00
31483;BME280;18103;52.246;8.052;2023-11-19T00:41:28;99538.72;;;9.69;100.00
31483;BME280;18103;52.246;8.052;2023-11-19T00:43:53;99532.50;;;9.70;100.00
31483;BME280;18103;52.246;8.052;2023-11-19T00:46:21;99526.13;;;9.83;100.00
31483;BME280;18103;52.246;8.052;2023-11-19T00:48:49;99523.91;;;9.78;100.00
31483;BME280;18103;52.246;8.052;2023-11-19T00:51:14;99521.97;;;9.80;100.00
31483;BME280;18103;52.246;8.052;2023-11-19T00:53:40;99526.72;;;9.86;100.00
31483;BME280;18103;52.246;8.052;2023-11-19T00:56:07;99524.19;;;9.85;100.00
31483;BME280;18103;52.246;8.052;2023-11-19T00:58:33;99504.09;;;9.93;100.00
31483;BME280;18103;52.246;8.052;2023-11-19T01:00:58;99509.38;;;9.93;100.00
31483;BME280;18103;52.246;8.052;2023-11-19T01:03:24;99502.72;;;9.89;100.00
31483;BME280;18103;52.246;8.052;2023-11-19T01:05:50;99512.69;;;9.96;100.00
31483;BME280;18103;52.246;8.052;2023-11-19T01:08:18;99520.59;;;9.96;100.00
31483;BME280;18103;52.246;8.052;2023-11-19T01:10:46;99509.22;;;9.95;100.00
31483;BME280;18103;52.246;8.052;2023-11-19T01:13:11;99499.81;;;10.02;100.00
31483;BME280;18103;52.246;8.052;2023-11-19T01:15:40;99501.19;;;9.97;100.00
31483;BME280;18103;52.246;8.052;2023-11-19T01:18:06;99496.44;;;10.00;100.00
31483;BME280;18103;52.246;8.052;2023-11-19T01:20:33;99493.72;;;10.02;100.00
31483;BME280;18103;52.246;8.052;2023-11-19T01:23:01;99485.66;;;10.03;100.00
31483;BME280;18103;52.246;8.052;2023-11-19T01:25:27;99496.34;;;10.12;100.00
31483;BME280;18103;52.246;8.052;2023-11-19T01:27:52;99491.47;;;10.17;100.00
31483;BME280;18103;52.246;8.052;2023-11-19T01:30:20;99491.06;;;10.21;100.00
31483;BME280;18103;52.246;8.052;2023-11-19T01:32:45;99477.19;;;10.19;100.00
31483;BME280;18103;52.246;8.052;2023-11-19T01:35:10;99472.72;;;10.20;100.00
31483;BME280;18103;52.246;8.052;2023-11-19T01:37:36;99468.72;;;10.25;100.00
31483;BME280;18103;52.246;8.052;2023-11-19T01:40:02;99468.72;;;10.25;100.00
31483;BME280;18103;52.246;8.052;2023-11-19T01:42:29;99478.69;;;10.32;100.00
31483;BME280;18103;52.246;8.052;2023-11-19T01:44:58;99464.53;;;10.33;100.00
31483;BME280;18103;52.246;8.052;2023-11-19T01:47:25;99469.72;;;10.34;100.00
31483;BME280;18103;52.246;8.052;2023-11-19T01:49:51;99463.19;;;10.38;100.00
31483;BME280;18103;52.246;8.052;2023-11-19T01:52:19;99466.94;;;10.36;100.00
31483;BME280;18103;52.246;8.052;2023-11-19T01:54:48;99447.88;;;10.42;100.00
31483;BME280;18103;52.246;8.052;2023-11-19T01:57:14;99460.94;;;10.43;100.00
31483;BME280;18103;52.246;8.052;2023-11-19T01:59:40;99463.44;;;10.45;100.00
31483;BME280;18103;52.246;8.052;2023-11-19T02:02:07;99467.06;;;10.44;100.00
31483;BME280;18103;52.246;8.052;2023-11-19T02:04:38;99459.00;;;10.46;100.00
31483;BME280;18103;52.246;8.052;2023-11-19T02:07:04;99445.38;;;10.50;100.00
31483;BME280;18103;52.246;8.052;2023-11-19T02:09:29;99446.06;;;10.52;100.00
31483;BME280;18103;52.246;8.052;2023-11-19T02:11:55;99428.13;;;10.56;100.00
31483;BME280;18103;52.246;8.052;2023-11-19T02:14:25;99408.53;;;10.58;100.00
31483;BME280;18103;52.246;8.052;2023-11-19T02:16:51;99410.59;;;10.65;100.00
31483;BME280;18103;52.246;8.052;2023-11-19T02:19:19;99419.88;;;10.69;100.00
31483;BME280;18103;52.246;8.052;2023-11-19T02:21:45;99416.84;;;10.73;100.00
31483;BME280;18103;52.246;8.052;2023-11-19T02:24:14;99411.97;;;10.69;100.00
31483;BME280;18103;52.246;8.052;2023-11-19T02:27:00;99410.28;;;10.77;100.00
31483;BME280;18103;52.246;8.052;2023-11-19T02:29:30;99410.28;;;10.77;100.00
31483;BME280;18103;52.246;8.052;2023-11-19T02:32:00;99404.31;;;10.75;100.00
31483;BME280;18103;52.246;8.052;2023-11-19T02:34:26;99393.34;;;10.80;100.00
31483;BME280;18103;52.246;8.052;2023-11-19T02:36:54;99406.09;;;10.85;100.00
31483;BME280;18103;52.246;8.052;2023-11-19T02:39:19;99402.47;;;10.86;100.00
31483;BME280;18103;52.246;8.052;2023-11-19T02:41:49;99393.16;;;10.91;100.00
31483;BME280;18103;52.246;8.052;2023-11-19T02:44:18;99403.00;;;10.89;100.00
31483;BME280;18103;52.246;8.052;2023-11-19T02:46:43;99406.06;;;10.94;100.00
31483;BME280;18103;52.246;8.052;2023-11-19T02:49:13;99405.19;;;10.94;100.00
31483;BME280;18103;52.246;8.052;2023-11-19T02:51:39;99400.63;;;10.96;100.00
31483;BME280;18103;52.246;8.052;2023-11-19T02:54:04;99405.09;;;10.95;100.00
31483;BME280;18103;52.246;8.052;2023-11-19T02:56:30;99402.81;;;11.01;100.00
31483;BME280;18103;52.246;8.052;2023-11-19T02:59:00;99406.16;;;11.03;100.00
31483;BME280;18103;52.246;8.052;2023-11-19T03:01:32;99396.50;;;11.11;100.00
31483;BME280;18103;52.246;8.052;2023-11-19T03:04:02;99388.63;;;11.02;100.00
31483;BME280;18103;52.246;8.052;2023-11-19T03:06:27;99392.34;;;11.09;100.00
31483;BME280;18103;52.246;8.052;2023-11-19T03:08:56;99396.81;;;11.08;100.00
31483;BME280;18103;52.246;8.052;2023-11-19T03:11:23;99381.06;;;11.17;100.00
31483;BME280;18103;52.246;8.052;2023-11-19T03:13:53;99384.13;;;11.12;100.00
31483;BME280;18103;52.246;8.052;2023-11-19T03:16:19;99392.28;;;11.19;100.00
31483;BME280;18103;52.246;8.052;2023-11-19T03:18:47;99386.03;;;11.20;100.00
31483;BME280;18103;52.246;8.052;2023-11-19T03:21:12;99385.88;;;11.21;100.00
31483;BME280;18103;52.246;8.052;2023-11-19T03:23:38;99380.00;;;11.27;100.00
31483;BME280;18103;52.246;8.052;2023-11-19T03:26:05;99374.03;;;11.25;100.00
31483;BME280;18103;52.246;8.052;2023-11-19T03:28:34;99381.81;;;11.27;100.00
31483;BME280;18103;52.246;8.052;2023-11-19T03:30:59;99375.25;;;11.31;100.00
31483;BME280;18103;52.246;8.052;2023-11-19T03:33:24;99371.41;;;11.25;100.00
31483;BME280;18103;52.246;8.052;2023-11-19T03:35:54;99386.28;;;11.26;100.00
31483;BME280;18103;52.246;8.052;2023-11-19T03:38:19;99392.78;;;11.32;100.00
31483;BME280;18103;52.246;8.052;2023-11-19T03:40:44;99406.13;;;11.30;100.00
31483;BME280;18103;52.246;8.052;2023-11-19T03:43:12;99397.22;;;11.32;100.00
31483;BME280;18103;52.246;8.052;2023-11-19T03:45:40;99396.94;;;11.35;100.00
31483;BME280;18103;52.246;8.052;2023-11-19T03:48:06;99391.50;;;11.36;100.00
31483;BME280;18103;52.246;8.052;2023-11-19T03:50:31;99394.81;;;11.38;100.00
31483;BME280;18103;52.246;8.052;2023-11-19T03:53:00;99392.56;;;11.43;100.00
31483;BME280;18103;52.246;8.052;2023-11-19T03:55:25;99397.69;;;11.45;100.00
31483;BME280;18103;52.246;8.052;2023-11-19T03:57:54;99387.28;;;11.43;100.00
31483;BME280;18103;52.246;8.052;2023-11-19T04:00:19;99384.19;;;11.48;100.00
31483;BME280;18103;52.246;8.052;2023-11-19T04:02:48;99385.38;;;11.54;100.00
31483;BME280;18103;52.246;8.052;2023-11-19T04:05:14;99383.19;;;11.49;100.00
31483;BME280;18103;52.246;8.052;2023-11-19T04:07:44;99382.50;;;11.47;100.00
31483;BME280;18103;52.246;8.052;2023-11-19T04:10:11;99386.75;;;11.58;100.00
31483;BME280;18103;52.246;8.052;2023-11-19T04:12:41;99374.31;;;11.50;100.00
31483;BME280;18103;52.246;8.052;2023-11-19T04:15:08;99376.63;;;11.53;100.00
31483;BME280;18103;52.246;8.052;2023-11-19T04:17:34;99371.88;;;11.57;100.00
31483;BME280;18103;52.246;8.052;2023-11-19T04:20:01;99368.56;;;11.55;100.00
31483;BME280;18103;52.246;8.052;2023-11-19T04:22:29;99379.44;;;11.52;100.00
31483;BME280;18103;52.246;8.052;2023-11-19T04:24:56;99370.28;;;11.46;100.00
31483;BME280;18103;52.246;8.052;2023-11-19T04:27:22;99380.41;;;11.51;100.00
31483;BME280;18103;52.246;8.052;2023-11-19T04:29:50;99378.44;;;11.53;100.00
31483;BME280;18103;52.246;8.052;2023-11-19T04:32:15;99378.72;;;11.50;100.00
31483;BME280;18103;52.246;8.052;2023-11-19T04:34:44;99376.41;;;11.46;100.00
31483;BME280;18103;52.246;8.052;2023-11-19T04:37:09;99374.47;;;11.49;100.00
31483;BME280;18103;52.246;8.052;2023-11-19T04:39:37;99372.56;;;11.59;100.00
31483;BME280;18103;52.246;8.052;2023-11-19T04:42:03;99366.06;;;11.53;100.00
31483;BME280;18103;52.246;8.052;2023-11-19T04:44:29;99351.88;;;11.54;100.00
31483;BME280;18103;52.246;8.052;2023-11-19T04:46:57;99353.66;;;11.54;100.00
31483;BME280;18103;52.246;8.052;2023-11-19T04:49:22;99344.63;;;11.56;100.00
31483;BME280;18103;52.246;8.052;2023-11-19T04:51:52;99344.47;;;11.58;100.00
31483;BME280;18103;52.246;8.052;2023-11-19T04:54:17;99342.44;;;11.52;100.00
31483;BME280;18103;52.246;8.052;2023-11-19T04:56:46;99349.75;;;11.58;100.00
31483;BME280;18103;52.246;8.052;2023-11-19T04:59:14;99366.22;;;11.52;100.00
31483;BME280;18103;52.246;8.052;2023-11-19T05:01:40;99382.91;;;11.52;100.00
31483;BME280;18103;52.246;8.052;2023-11-19T05:04:08;99377.91;;;11.49;100.00
31483;BME280;18103;52.246;8.052;2023-11-19T05:06:36;99384.03;;;11.50;100.00
31483;BME280;18103;52.246;8.052;2023-11-19T05:09:04;99381.78;;;11.55;100.00
31483;BME280;18103;52.246;8.052;2023-11-19T05:11:33;99383.44;;;11.56;100.00
31483;BME280;18103;52.246;8.052;2023-11-19T05:13:59;99372.00;;;11.55;100.00
31483;BME280;18103;52.246;8.052;2023-11-19T05:16:24;99379.44;;;11.52;100.00
31483;BME280;18103;52.246;8.052;2023-11-19T05:18:52;99382.75;;;11.54;100.00
31483;BME280;18103;52.246;8.052;2023-11-19T05:21:18;99379.34;;;11.61;100.00
31483;BME280;18103;52.246;8.052;2023-11-19T05:23:43;99381.22;;;11.51;100.00
31483;BME280;18103;52.246;8.052;2023-11-19T05:26:09;99375.34;;;11.57;100.00
31483;BME280;18103;52.246;8.052;2023-11-19T05:28:38;99381.78;;;11.55;100.00
31483;BME280;18103;52.246;8.052;2023-11-19T05:31:04;99371.66;;;11.50;100.00
31483;BME280;18103;52.246;8.052;2023-11-19T05:33:32;99379.75;;;11.49;100.00
31483;BME280;18103;52.246;8.052;2023-11-19T05:35:57;99379.59;;;11.50;100.00
31483;BME280;18103;52.246;8.052;2023-11-19T05:38:25;99378.59;;;11.51;100.00
31483;BME280;18103;52.246;8.052;2023-11-19T05:40:54;99382.31;;;11.40;100.00
31483;BME280;18103;52.246;8.052;2023-11-19T05:43:19;99371.72;;;11.40;100.00
31483;BME280;18103;52.246;8.052;2023-11-19T05:45:44;99369.44;;;11.45;100.00
31483;BME280;18103;52.246;8.052;2023-11-19T05:48:10;99366.72;;;11.37;100.00
31483;BME280;18103;52.246;8.052;2023-11-19T05:50:40;99362.34;;;11.28;100.00
31483;BME280;18103;52.246;8.052;2023-11-19T05:53:05;99373.59;;;11.30;100.00
31483;BME280;18103;52.246;8.052;2023-11-19T05:55:37;99379.13;;;11.37;100.00
31483;BME280;18103;52.246;8.052;2023-11-19T05:58:10;99389.59;;;11.28;100.00
31483;BME280;18103;52.246;8.052;2023-11-19T06:00:39;99382.94;;;11.24;100.00
31483;BME280;18103;52.246;8.052;2023-11-19T06:03:07;99388.06;;;11.26;100.00
31483;BME280;18103;52.246;8.052;2023-11-19T06:05:32;99391.84;;;11.23;100.00
31483;BME280;18103;52.246;8.052;2023-11-19T06:08:00;99391.16;;;11.21;100.00
31483;BME280;18103;52.246;8.052;2023-11-19T06:10:28;99395.31;;;11.24;100.00
31483;BME280;18103;52.246;8.052;2023-11-19T06:12:59;99396.59;;;11.20;100.00
31483;BME280;18103;52.246;8.052;2023-11-19T06:15:30;99393.25;;;11.18;100.00
31483;BME280;18103;52.246;8.052;2023-11-19T06:17:55;99392.00;;;11.22;100.00
31483;BME280;18103;52.246;8.052;2023-11-19T06:20:26;99396.75;;;11.18;100.00
31483;BME280;18103;52.246;8.052;2023-11-19T06:22:54;99399.31;;;11.10;100.00
31483;BME280;18103;52.246;8.052;2023-11-19T06:25:20;99395.84;;;11.09;100.00
31483;BME280;18103;52.246;8.052;2023-11-19T06:27:45;99404.88;;;11.07;100.00
31483;BME280;18103;52.246;8.052;2023-11-19T06:30:13;99407.22;;;11.10;100.00
31483;BME280;18103;52.246;8.052;2023-11-19T06:32:40;99419.72;;;11.08;100.00
31483;BME280;18103;52.246;8.052;2023-11-19T06:35:06;99417.25;;;11.06;100.00
31483;BME280;18103;52.246;8.052;2023-11-19T06:37:32;99416.13;;;11.09;100.00
31483;BME280;18103;52.246;8.052;2023-11-19T06:40:00;99410.59;;;11.02;100.00
31483;BME280;18103;52.246;8.052;2023-11-19T06:42:26;99418.25;;;11.05;100.00
31483;BME280;18103;52.246;8.052;2023-11-19T06:44:53;99420.03;;;11.05;100.00
31483;BME280;18103;52.246;8.052;2023-11-19T06:47:19;99432.84;;;11.00;100.00
31483;BME280;18103;52.246;8.052;2023-11-19T06:49:44;99424.38;;;10.96;100.00
31483;BME280;18103;52.246;8.052;2023-11-19T06:52:10;99437.72;;;10.94;100.00
31483;BME280;18103;52.246;8.052;2023-11-19T06:54:35;99435.91;;;10.95;100.00
31483;BME280;18103;52.246;8.052;2023-11-19T06:57:06;99437.59;;;10.96;100.00
31483;BME280;18103;52.246;8.052;2023-11-19T06:59:31;99432.75;;;10.91;100.00
31483;BME280;18103;52.246;8.052;2023-11-19T07:01:56;99430.63;;;10.95;100.00
31483;BME280;18103;52.246;8.052;2023-11-19T07:04:22;99438.19;;;10.90;100.00
31483;BME280;18103;52.246;8.052;2023-11-19T07:06:47;99429.41;;;10.89;100.00
31483;BME280;18103;52.246;8.052;2023-11-19T07:09:15;99432.59;;;10.93;100.00
31483;BME280;18103;52.246;8.052;2023-11-19T07:11:41;99439.97;;;10.89;100.00
31483;BME280;18103;52.246;8.052;2023-11-19T07:14:07;99437.19;;;10.91;100.00
31483;BME280;18103;52.246;8.052;2023-11-19T07:16:34;99447.38;;;10.86;100.00
31483;BME280;18103;52.246;8.052;2023-11-19T07:19:03;99445.84;;;10.83;100.00
31483;BME280;18103;52.246;8.052;2023-11-19T07:21:29;99447.22;;;10.87;100.00
31483;BME280;18103;52.246;8.052;2023-11-19T07:23:55;99450.97;;;10.85;100.00
31483;BME280;18103;52.246;8.052;2023-11-19T07:26:20;99445.69;;;10.85;100.00
31483;BME280;18103;52.246;8.052;2023-11-19T07:28:47;99439.03;;;10.81;100.00
31483;BME280;18103;52.246;8.052;2023-11-19T07:31:15;99434.84;;;10.88;100.00
31483;BME280;18103;52.246;8.052;2023-11-19T07:33:44;99444.84;;;10.84;100.00
31483;BME280;18103;52.246;8.052;2023-11-19T07:36:10;99449.31;;;10.84;100.00
31483;BME280;18103;52.246;8.052;2023-11-19T07:38:38;99444.63;;;10.77;100.00
31483;BME280;18103;52.246;8.052;2023-11-19T07:41:05;99457.22;;;10.84;100.00
31483;BME280;18103;52.246;8.052;2023-11-19T07:43:31;99455.13;;;10.87;100.00
31483;BME280;18103;52.246;8.052;2023-11-19T07:45:56;99459.88;;;10.84;100.00
31483;BME280;18103;52.246;8.052;2023-11-19T07:48:25;99461.97;;;10.80;100.00
31483;BME280;18103;52.246;8.052;2023-11-19T07:50:52;99469.44;;;10.85;100.00
31483;BME280;18103;52.246;8.052;2023-11-19T07:53:17;99473.88;;;10.84;100.00
31483;BME280;18103;52.246;8.052;2023-11-19T07:55:43;99478.19;;;10.85;100.00
31483;BME280;18103;52.246;8.052;2023-11-19T07:58:09;99480.31;;;10.82;100.00
31483;BME280;18103;52.246;8.052;2023-11-19T08:00:35;99479.16;;;10.84;100.00
31483;BME280;18103;52.246;8.052;2023-11-19T08:03:00;99481.81;;;10.84;100.00
31483;BME280;18103;52.246;8.052;2023-11-19T08:05:26;99484.19;;;10.87;100.00
31483;BME280;18103;52.246;8.052;2023-11-19T08:07:57;99490.44;;;10.86;100.00
31483;BME280;18103;52.246;8.052;2023-11-19T08:10:26;99490.28;;;10.88;100.00
31483;BME280;18103;52.246;8.052;2023-11-19T08:12:54;99489.59;;;10.86;100.00
31483;BME280;18103;52.246;8.052;2023-11-19T08:15:19;99492.25;;;10.86;100.00
31483;BME280;18103;52.246;8.052;2023-11-19T08:17:45;99496.81;;;10.84;100.00
31483;BME280;18103;52.246;8.052;2023-11-19T08:20:10;99502.81;;;10.86;100.00
31483;BME280;18103;52.246;8.052;2023-11-19T08:22:36;99501.00;;;10.86;100.00
31483;BME280;18103;52.246;8.052;2023-11-19T08:25:05;99501.13;;;10.85;100.00
31483;BME280;18103;52.246;8.052;2023-11-19T08:27:31;99502.50;;;10.89;100.00
31483;BME280;18103;52.246;8.052;2023-11-19T08:29:56;99504.44;;;10.87;100.00
31483;BME280;18103;52.246;8.052;2023-11-19T08:32:25;99502.50;;;10.89;100.00
31483;BME280;18103;52.246;8.052;2023-11-19T08:34:51;99502.50;;;10.89;100.00
31483;BME280;18103;52.246;8.052;2023-11-19T08:37:16;99500.84;;;10.88;100.00
31483;BME280;18103;52.246;8.052;2023-11-19T08:39:51;99496.94;;;10.92;100.00
31483;BME280;18103;52.246;8.052;2023-11-19T08:42:17;99496.94;;;10.92;100.00
31483;BME280;18103;52.246;8.052;2023-11-19T08:44:43;99505.97;;;10.89;100.00
31483;BME280;18103;52.246;8.052;2023-11-19T08:47:14;99512.09;;;10.90;100.00
31483;BME280;18103;52.246;8.052;2023-11-19T08:49:41;99506.13;;;10.88;100.00
31483;BME280;18103;52.246;8.052;2023-11-19T08:52:06;99518.34;;;10.89;100.00
31483;BME280;18103;52.246;8.052;2023-11-19T08:54:33;99515.72;;;10.89;100.00
31483;BME280;18103;52.246;8.052;2023-11-19T08:56:58;99512.66;;;10.84;100.00
31483;BME280;18103;52.246;8.052;2023-11-19T08:59:28;99518.09;;;10.82;100.00
31483;BME280;18103;52.246;8.052;2023-11-19T09:01:58;99514.34;;;10.85;100.00
31483;BME280;18103;52.246;8.052;2023-11-19T09:04:23;99515.31;;;10.84;100.00
31483;BME280;18103;52.246;8.052;2023-11-19T09:06:52;99520.59;;;10.84;100.00
31483;BME280;18103;52.246;8.052;2023-11-19T09:09:20;99516.28;;;10.83;100.00
31483;BME280;18103;52.246;8.052;2023-11-19T09:11:51;99511.13;;;10.81;100.00
31483;BME280;18103;52.246;8.052;2023-11-19T09:14:21;99515.88;;;10.87;100.00
31483;BME280;18103;52.246;8.052;2023-11-19T09:16:51;99522.53;;;10.91;100.00
31483;BME280;18103;52.246;8.052;2023-11-19T09:19:18;99520.03;;;10.90;100.00
31483;BME280;18103;52.246;8.052;2023-11-19T09:21:46;99528.63;;;10.92;100.00
31483;BME280;18103;52.246;8.052;2023-11-19T09:24:13;99528.19;;;10.96;100.00
31483;BME280;18103;52.246;8.052;2023-11-19T09:26:38;99524.72;;;10.96;100.00
31483;BME280;18103;52.246;8.052;2023-11-19T09:29:09;99526.09;;;11.00;100.00
31483;BME280;18103;52.246;8.052;2023-11-19T09:31:35;99510.38;;;11.08;100.00
31483;BME280;18103;52.246;8.052;2023-11-19T09:34:01;99510.91;;;11.12;100.00
31483;BME280;18103;52.246;8.052;2023-11-19T09:36:28;99526.06;;;11.10;100.00
31483;BME280;18103;52.246;8.052;2023-11-19T09:38:56;99529.78;;;11.17;100.00
31483;BME280;18103;52.246;8.052;2023-11-19T09:41:23;99530.50;;;11.19;100.00
31483;BME280;18103;52.246;8.052;2023-11-19T09:43:48;99516.00;;;11.23;100.00
31483;BME280;18103;52.246;8.052;2023-11-19T09:46:17;99514.88;;;11.26;100.00
31483;BME280;18103;52.246;8.052;2023-11-19T09:48:44;99512.94;;;11.28;99.93
31483;BME280;18103;52.246;8.052;2023-11-19T09:51:10;99510.28;;;11.28;99.91
31483;BME280;18103;52.246;8.052;2023-11-19T09:53:39;99519.75;;;11.30;100.00
31483;BME280;18103;52.246;8.052;2023-11-19T09:56:05;99515.16;;;11.23;99.52
31483;BME280;18103;52.246;8.052;2023-11-19T09:58:35;99512.94;;;11.28;99.41
31483;BME280;18103;52.246;8.052;2023-11-19T10:01:06;99517.09;;;11.30;99.35
31483;BME280;18103;52.246;8.052;2023-11-19T10:03:38;99513.09;;;11.26;99.49
31483;BME280;18103;52.246;8.052;2023-11-19T10:06:08;99510.97;;;11.30;99.45
31483;BME280;18103;52.246;8.052;2023-11-19T10:08:34;99513.47;;;11.32;99.24
31483;BME280;18103;52.246;8.052;2023-11-19T10:11:04;99519.03;;;11.28;99.27
31483;BME280;18103;52.246;8.052;2023-11-19T10:13:35;99516.69;;;11.25;99.32
31483;BME280;18103;52.246;8.052;2023-11-19T10:16:07;99514.59;;;11.29;99.28
31483;BME280;18103;52.246;8.052;2023-11-19T10:18:37;99514.59;;;11.29;99.00
31483;BME280;18103;52.246;8.052;2023-11-19T10:21:05;99518.75;;;11.32;98.92
31483;BME280;18103;52.246;8.052;2023-11-19T10:23:31;99515.28;;;11.31;98.64
31483;BME280;18103;52.246;8.052;2023-11-19T10:26:03;99520.41;;;11.33;98.75
31483;BME280;18103;52.246;8.052;2023-11-19T10:28:39;99518.47;;;11.35;98.52
31483;BME280;18103;52.246;8.052;2023-11-19T10:31:05;99515.94;;;11.33;98.75
31483;BME280;18103;52.246;8.052;2023-11-19T10:33:30;99510.81;;;11.32;98.50
31483;BME280;18103;52.246;8.052;2023-11-19T10:35:57;99515.28;;;11.31;98.77
31483;BME280;18103;52.246;8.052;2023-11-19T10:38:25;99503.59;;;11.34;98.88
31483;BME280;18103;52.246;8.052;2023-11-19T10:40:54;99516.94;;;11.32;98.93
31483;BME280;18103;52.246;8.052;2023-11-19T10:43:22;99506.09;;;11.35;99.00
31483;BME280;18103;52.246;8.052;2023-11-19T10:45:51;99504.41;;;11.34;98.73
31483;BME280;18103;52.246;8.052;2023-11-19T10:48:19;99510.16;;;11.29;98.84
31483;BME280;18103;52.246;8.052;2023-11-19T10:50:49;99506.81;;;11.27;99.67
31483;BME280;18103;52.246;8.052;2023-11-19T10:53:18;99508.47;;;11.28;100.00
31483;BME280;18103;52.246;8.052;2023-11-19T10:55:47;99510.44;;;11.26;100.00
31483;BME280;18103;52.246;8.052;2023-11-19T10:58:15;99502.25;;;11.20;100.00
31483;BME280;18103;52.246;8.052;2023-11-19T11:00:47;99510.72;;;11.23;100.00
31483;BME280;18103;52.246;8.052;2023-11-19T11:03:19;99509.47;;;11.18;100.00
31483;BME280;18103;52.246;8.052;2023-11-19T11:05:51;99511.72;;;11.22;100.00
31483;BME280;18103;52.246;8.052;2023-11-19T11:08:17;99512.97;;;11.18;100.00
31483;BME280;18103;52.246;8.052;2023-11-19T11:10:53;99508.22;;;11.22;100.00
31483;BME280;18103;52.246;8.052;2023-11-19T11:13:19;99505.47;;;11.13;100.00
31483;BME280;18103;52.246;8.052;2023-11-19T11:15:45;99515.22;;;11.13;100.00
31483;BME280;18103;52.246;8.052;2023-11-19T11:18:12;99510.06;;;11.11;100.00
31483;BME280;18103;52.246;8.052;2023-11-19T11:20:41;99510.06;;;11.11;100.00
31483;BME280;18103;52.246;8.052;2023-11-19T11:26:19;99498.44;;;11.04;100.00
31483;BME280;18103;52.246;8.052;2023-11-19T11:37:26;99495.78;;;11.04;100.00
31483;BME280;18103;52.246;8.052;2023-11-19T11:39:57;99503.56;;;11.06;100.00
31483;BME280;18103;52.246;8.052;2023-11-19T11:50:13;99499.78;;;11.18;100.00
31483;BME280;18103;52.246;8.052;2023-11-19T11:58:03;99485.44;;;11.21;100.00
31483;BME280;18103;52.246;8.052;2023-11-19T12:02:56;99483.47;;;11.23;100.00
31483;BME280;18103;52.246;8.052;2023-11-19T12:05:21;99489.81;;;11.30;100.00
31483;BME280;18103;52.246;8.052;2023-11-19T12:08:12;99477.75;;;11.27;100.00
31483;BME280;18103;52.246;8.052;2023-11-19T12:10:44;99478.03;;;11.24;100.00
31483;BME280;18103;52.246;8.052;2023-11-19T12:13:15;99485.00;;;11.25;100.00
31483;BME280;18103;52.246;8.052;2023-11-19T12:18:26;99478.34;;;11.21;100.00
31483;BME280;18103;52.246;8.052;2023-11-19T12:20:51;99476.91;;;11.27;99.77
31483;BME280;18103;52.246;8.052;2023-11-19T12:23:17;99486.66;;;11.26;99.77
31483;BME280;18103;52.246;8.052;2023-11-19T12:25:42;99468.19;;;11.26;99.17
31483;BME280;18103;52.246;8.052;2023-11-19T12:28:14;99473.16;;;11.29;99.22
31483;BME280;18103;52.246;8.052;2023-11-19T12:30:41;99460.63;;;11.32;99.61
31483;BME280;18103;52.246;8.052;2023-11-19T12:33:10;99451.28;;;11.37;99.64
31483;BME280;18103;52.246;8.052;2023-11-19T12:35:43;99455.19;;;11.33;99.62
31483;BME280;18103;52.246;8.052;2023-11-19T12:38:18;99460.63;;;11.32;99.56
31483;BME280;18103;52.246;8.052;2023-11-19T12:40:44;99457.97;;;11.32;99.60
31483;BME280;18103;52.246;8.052;2023-11-19T12:43:10;99453.09;;;11.37;99.05
31483;BME280;18103;52.246;8.052;2023-11-19T12:45:36;99458.06;;;11.40;98.51
31483;BME280;18103;52.246;8.052;2023-11-19T12:48:13;99444.34;;;11.36;98.40
31483;BME280;18103;52.246;8.052;2023-11-19T12:50:57;99445.25;;;11.45;98.59
31483;BME280;18103;52.246;8.052;2023-11-19T12:53:24;99444.13;;;11.47;98.06
31483;BME280;18103;52.246;8.052;2023-11-19T12:55:51;99445.81;;;11.49;98.00
31483;BME280;18103;52.246;8.052;2023-11-19T12:58:36;99439.09;;;11.54;97.23
31483;BME280;18103;52.246;8.052;2023-11-19T13:01:07;99439.31;;;11.61;96.40
31483;BME280;18103;52.246;8.052;2023-11-19T13:03:34;99438.09;;;11.55;97.38
31483;BME280;18103;52.246;8.052;2023-11-19T13:08:40;99428.38;;;11.56;97.34
31483;BME280;18103;52.246;8.052;2023-11-19T13:11:08;99419.91;;;11.52;96.93
31483;BME280;18103;52.246;8.052;2023-11-19T13:13:53;99429.66;;;11.52;96.20
31483;BME280;18103;52.246;8.052;2023-11-19T13:16:18;99424.50;;;11.50;96.53
31483;BME280;18103;52.246;8.052;2023-11-19T13:18:44;99420.59;;;11.54;96.27
31483;BME280;18103;52.246;8.052;2023-11-19T13:21:10;99419.38;;;11.49;96.52
31483;BME280;18103;52.246;8.052;2023-11-19T13:23:38;99415.00;;;11.57;96.48
31483;BME280;18103;52.246;8.052;2023-11-19T13:26:03;99417.66;;;11.57;96.57
31483;BME280;18103;52.246;8.052;2023-11-19T13:28:34;99427.81;;;11.52;95.99